createdAt,value
2024-04-19T00:00:50.499Z,2.37
2024-04-19T00:03:17.758Z,3.97
2024-04-19T00:05:44.982Z,2.50
2024-04-19T00:08:12.182Z,4.47
2024-04-19T00:10:39.285Z,3.10
2024-04-19T00:13:06.428Z,4.83
2024-04-19T00:15:36.476Z,4.77
2024-04-19T00:18:06.404Z,3.00
2024-04-19T00:20:33.597Z,5.13
2024-04-19T00:23:00.596Z,5.17
2024-04-19T00:25:27.729Z,6.33
2024-04-19T00:27:54.855Z,6.10
2024-04-19T00:30:21.927Z,3.47
2024-04-19T00:32:58.101Z,6.47
2024-04-19T00:35:34.635Z,2.83
2024-04-19T00:38:03.541Z,7.83
2024-04-19T00:40:30.655Z,4.50
2024-04-19T00:43:01.210Z,4.40
2024-04-19T00:45:33.231Z,6.67
2024-04-19T00:48:01.393Z,6.20
2024-04-19T00:50:30.619Z,3.03
2024-04-19T00:53:00.685Z,6.80
2024-04-19T00:55:28.432Z,3.03
2024-04-19T00:57:57.265Z,2.83
2024-04-19T01:00:25.338Z,3.70
2024-04-19T01:02:54.438Z,3.90
2024-04-19T01:05:21.894Z,4.10
2024-04-19T01:07:49.570Z,5.10
2024-04-19T01:10:19.405Z,3.70
2024-04-19T01:12:46.517Z,3.90
2024-04-19T01:15:17.217Z,4.83
2024-04-19T01:17:44.437Z,5.00
2024-04-19T01:20:12.120Z,9.17
2024-04-19T01:22:40.074Z,5.03
2024-04-19T01:25:10.778Z,7.23
2024-04-19T01:27:40.453Z,5.43
2024-04-19T01:30:08.282Z,7.13
2024-04-19T01:32:35.295Z,2.90
2024-04-19T01:35:03.101Z,3.10
2024-04-19T01:37:30.966Z,5.50
2024-04-19T01:39:58.074Z,3.40
2024-04-19T01:42:25.099Z,4.33
2024-04-19T01:44:54.725Z,3.77
2024-04-19T01:47:21.627Z,5.93
2024-04-19T01:49:48.608Z,5.23
2024-04-19T01:52:15.513Z,7.20
2024-04-19T01:54:42.521Z,7.43
2024-04-19T01:57:09.776Z,12.97
2024-04-19T01:59:36.735Z,4.33
2024-04-19T02:02:06.318Z,5.80
2024-04-19T02:04:34.951Z,8.63
2024-04-19T02:07:01.888Z,3.90
2024-04-19T02:09:29.023Z,4.60
2024-04-19T02:11:55.932Z,3.53
2024-04-19T02:14:22.780Z,3.10
2024-04-19T02:16:49.594Z,5.10
2024-04-19T02:19:19.171Z,3.00
2024-04-19T02:21:46.130Z,4.50
2024-04-19T02:24:13.082Z,6.70
2024-04-19T02:26:40.115Z,8.80
2024-04-19T02:29:07.094Z,5.47
2024-04-19T02:31:33.930Z,4.97
2024-04-19T02:34:00.900Z,4.67
2024-04-19T02:36:30.372Z,4.40
2024-04-19T02:38:57.310Z,9.63
2024-04-19T02:41:25.344Z,6.10
2024-04-19T02:43:52.382Z,4.53
2024-04-19T02:46:19.588Z,8.60
2024-04-19T02:48:46.849Z,3.93
2024-04-19T02:51:13.859Z,4.40
2024-04-19T02:53:43.487Z,5.40
2024-04-19T02:56:10.436Z,3.97
2024-04-19T02:58:37.262Z,5.93
2024-04-19T03:01:04.729Z,5.03
2024-04-19T03:03:31.842Z,4.47
2024-04-19T03:05:58.867Z,4.10
2024-04-19T03:08:27.008Z,3.83
2024-04-19T03:10:56.499Z,4.23
2024-04-19T03:13:26.432Z,4.90
2024-04-19T03:16:03.846Z,5.87
2024-04-19T03:18:30.989Z,3.87
2024-04-19T03:20:58.935Z,2.20
2024-04-19T03:23:25.920Z,2.70
2024-04-19T03:25:53.037Z,3.13
2024-04-19T03:28:22.566Z,4.43
2024-04-19T03:30:49.500Z,3.37
2024-04-19T03:33:16.665Z,5.20
2024-04-19T03:35:43.768Z,3.97
2024-04-19T03:38:10.611Z,6.57
2024-04-19T03:40:37.481Z,7.73
2024-04-19T03:43:04.726Z,4.00
2024-04-19T03:45:34.440Z,4.80
2024-04-19T03:48:02.093Z,3.43
2024-04-19T03:50:29.020Z,3.20
2024-04-19T03:52:56.207Z,4.10
2024-04-19T03:55:23.186Z,4.37
2024-04-19T03:57:50.479Z,5.93
2024-04-19T04:00:17.846Z,8.13
2024-04-19T04:02:47.733Z,7.80
2024-04-19T04:05:14.820Z,3.40
2024-04-19T04:07:41.744Z,7.57
2024-04-19T04:10:08.867Z,6.30
2024-04-19T04:12:35.771Z,5.00
2024-04-19T04:15:03.291Z,6.13
2024-04-19T04:17:30.212Z,5.70
2024-04-19T04:19:59.725Z,5.53
2024-04-19T04:22:26.550Z,7.00
2024-04-19T04:24:53.397Z,7.33
2024-04-19T04:27:20.464Z,5.00
2024-04-19T04:29:47.294Z,6.77
2024-04-19T04:32:14.276Z,10.77
2024-04-19T04:34:41.113Z,4.37
2024-04-19T04:37:10.776Z,4.87
2024-04-19T04:39:37.694Z,5.87
2024-04-19T04:42:04.975Z,9.40
2024-04-19T04:44:31.901Z,4.20
2024-04-19T04:46:58.755Z,6.80
2024-04-19T04:49:25.770Z,10.63
2024-04-19T04:51:52.765Z,7.67
2024-04-19T04:54:22.464Z,8.27
2024-04-19T04:56:49.526Z,7.60
2024-04-19T04:59:16.530Z,7.13
2024-04-19T05:01:43.394Z,6.83
2024-04-19T05:04:10.403Z,5.07
2024-04-19T05:06:37.365Z,7.00
2024-04-19T05:09:04.505Z,7.37
2024-04-19T05:11:34.100Z,6.50
2024-04-19T05:14:01.025Z,4.93
2024-04-19T05:16:27.858Z,5.53
2024-04-19T05:18:54.739Z,4.47
2024-04-19T05:21:21.593Z,4.03
2024-04-19T05:23:49.203Z,4.60
2024-04-19T05:26:16.282Z,6.37
2024-04-19T05:28:45.743Z,6.77
2024-04-19T05:31:12.708Z,6.00
2024-04-19T05:33:39.589Z,4.77
2024-04-19T05:36:09.613Z,5.70
2024-04-19T05:38:36.529Z,3.63
2024-04-19T05:41:03.541Z,6.93
2024-04-19T05:43:30.473Z,2.70
2024-04-19T05:45:59.957Z,6.23
2024-04-19T05:48:26.961Z,3.03
2024-04-19T05:50:53.857Z,4.63
2024-04-19T05:53:20.704Z,8.20
2024-04-19T05:55:50.272Z,3.90
2024-04-19T05:58:17.314Z,3.70
2024-04-19T06:00:44.235Z,4.03
2024-04-19T06:03:13.852Z,5.83
2024-04-19T06:05:40.866Z,4.40
2024-04-19T06:08:08.307Z,6.80
2024-04-19T06:10:35.243Z,2.53
2024-04-19T06:13:02.099Z,2.63
2024-04-19T06:15:28.951Z,3.27
2024-04-19T06:17:55.919Z,4.03
2024-04-19T06:20:25.614Z,4.73
2024-04-19T06:22:52.703Z,3.80
2024-04-19T06:25:19.593Z,2.80
2024-04-19T06:27:46.524Z,3.30
2024-04-19T06:30:16.172Z,9.93
2024-04-19T06:32:43.159Z,3.13
2024-04-19T06:35:10.173Z,3.63
2024-04-19T06:37:39.809Z,3.57
2024-04-19T06:40:08.254Z,3.83
2024-04-19T06:42:35.720Z,2.77
2024-04-19T06:45:03.124Z,3.90
2024-04-19T06:47:30.326Z,3.17
2024-04-19T06:49:57.377Z,3.37
2024-04-19T06:52:24.288Z,2.90
2024-04-19T06:54:53.882Z,3.70
2024-04-19T06:57:21.150Z,2.73
2024-04-19T06:59:48.275Z,6.00
2024-04-19T07:02:15.331Z,3.53
2024-04-19T07:04:42.430Z,2.90
2024-04-19T07:07:09.598Z,3.20
2024-04-19T07:09:36.635Z,2.70
2024-04-19T07:12:07.077Z,3.23
2024-04-19T07:14:35.955Z,3.00
2024-04-19T07:17:02.909Z,3.13
2024-04-19T07:19:29.864Z,3.80
2024-04-19T07:21:56.812Z,3.60
2024-04-19T07:24:23.842Z,3.70
2024-04-19T07:26:50.715Z,3.43
2024-04-19T07:29:20.427Z,3.07
2024-04-19T07:31:47.504Z,5.43
2024-04-19T07:34:14.383Z,3.10
2024-04-19T07:36:41.408Z,5.03
2024-04-19T07:39:08.288Z,3.10
2024-04-19T07:41:37.169Z,2.50
2024-04-19T07:44:04.847Z,2.33
2024-04-19T07:46:34.527Z,3.80
2024-04-19T07:49:01.622Z,5.30
2024-04-19T07:51:31.804Z,5.43
2024-04-19T07:53:58.839Z,1.93
2024-04-19T07:56:25.832Z,4.70
2024-04-19T07:58:52.973Z,3.13
2024-04-19T08:01:19.943Z,1.70
2024-04-19T08:03:49.723Z,3.97
2024-04-19T08:06:16.868Z,2.60
2024-04-19T08:08:43.851Z,4.47
2024-04-19T08:11:10.741Z,2.43
2024-04-19T08:13:37.790Z,1.60
2024-04-19T08:16:05.274Z,1.20
2024-04-19T08:18:37.812Z,1.27
2024-04-19T08:21:07.482Z,4.00
2024-04-19T08:23:34.539Z,1.30
2024-04-19T08:26:01.525Z,1.37
2024-04-19T08:28:28.440Z,1.00
2024-04-19T08:30:55.777Z,1.77
2024-04-19T08:33:23.105Z,0.77
2024-04-19T08:35:54.156Z,0.97
2024-04-19T08:38:23.817Z,1.33
2024-04-19T08:40:56.607Z,1.17
2024-04-19T08:43:24.067Z,0.70
2024-04-19T08:45:50.967Z,0.60
2024-04-19T08:48:18.334Z,1.20
2024-04-19T08:50:46.277Z,1.03
2024-04-19T08:53:16.723Z,1.20
2024-04-19T08:55:48.032Z,0.87
2024-04-19T08:58:15.472Z,1.60
2024-04-19T09:00:42.534Z,0.80
2024-04-19T09:03:09.701Z,1.83
2024-04-19T09:05:36.676Z,1.23
2024-04-19T09:08:03.819Z,2.30
2024-04-19T09:10:31.700Z,1.07
2024-04-19T09:13:01.434Z,1.97
2024-04-19T09:15:29.037Z,1.73
2024-04-19T09:17:56.418Z,0.90
2024-04-19T09:20:23.564Z,0.87
2024-04-19T09:22:50.802Z,1.80
2024-04-19T09:25:17.879Z,1.23
2024-04-19T09:27:45.064Z,0.80
2024-04-19T09:30:14.847Z,0.80
2024-04-19T09:32:41.893Z,1.13
2024-04-19T09:35:08.800Z,1.27
2024-04-19T09:37:36.470Z,0.50
2024-04-19T09:40:03.681Z,0.67
2024-04-19T09:42:32.607Z,1.90
2024-04-19T09:45:04.786Z,0.80
2024-04-19T09:47:36.857Z,0.87
2024-04-19T09:50:05.414Z,0.80
2024-04-19T09:52:36.382Z,0.67
2024-04-19T09:55:09.824Z,0.50
2024-04-19T09:57:37.361Z,0.70
2024-04-19T10:00:05.163Z,1.27
2024-04-19T10:02:37.725Z,0.60
2024-04-19T10:05:06.531Z,0.63
2024-04-19T10:07:33.936Z,0.50
2024-04-19T10:10:02.331Z,0.50
2024-04-19T10:12:30.073Z,0.50
2024-04-19T10:14:57.328Z,0.40
2024-04-19T10:17:24.415Z,0.40
2024-04-19T10:19:54.997Z,0.40
2024-04-19T10:22:22.361Z,0.70
2024-04-19T10:25:30.199Z,0.63
2024-04-19T10:27:58.280Z,0.43
2024-04-19T10:30:36.726Z,0.40
2024-04-19T10:33:06.120Z,0.50
2024-04-19T10:35:42.117Z,0.40
2024-04-19T10:38:08.986Z,3.30
2024-04-19T10:40:37.865Z,0.50
2024-04-19T10:43:06.145Z,0.80
2024-04-19T10:45:33.231Z,1.73
2024-04-19T10:48:00.717Z,1.13
2024-04-19T10:50:28.816Z,0.93
2024-04-19T10:52:58.976Z,2.60
2024-04-19T10:55:26.152Z,0.57
2024-04-19T10:57:53.048Z,0.70
2024-04-19T11:00:20.341Z,2.90
2024-04-19T11:02:47.416Z,0.60
2024-04-19T11:05:14.873Z,2.03
2024-04-19T11:07:41.830Z,1.90
2024-04-19T11:10:11.674Z,0.83
2024-04-19T11:12:40.946Z,2.03
2024-04-19T11:15:09.220Z,0.70
2024-04-19T11:17:38.023Z,2.67
2024-04-19T11:20:05.658Z,0.67
2024-04-19T11:22:32.631Z,1.17
2024-04-19T11:24:59.612Z,4.87
2024-04-19T11:27:29.325Z,0.80
2024-04-19T11:29:56.231Z,2.83
2024-04-19T11:32:30.959Z,2.10
2024-04-19T11:34:59.677Z,2.50
2024-04-19T11:37:31.076Z,2.77
2024-04-19T11:39:58.154Z,3.10
2024-04-19T11:42:25.447Z,2.63
2024-04-19T11:44:57.820Z,0.93
2024-04-19T11:47:24.963Z,1.70
2024-04-19T11:49:51.994Z,1.60
2024-04-19T11:52:18.938Z,2.90
2024-04-19T11:54:45.930Z,1.73
2024-04-19T11:57:12.959Z,3.77
2024-04-19T11:59:39.809Z,1.70
2024-04-19T12:02:09.897Z,2.93
2024-04-19T12:04:38.094Z,1.80
2024-04-19T12:07:08.927Z,1.33
2024-04-19T12:09:36.006Z,2.00
2024-04-19T12:12:51.646Z,1.50
2024-04-19T12:15:43.020Z,1.63
2024-04-19T12:17:43.506Z,1.03
2024-04-19T12:20:16.034Z,1.90
2024-04-19T12:22:59.273Z,1.37
2024-04-19T12:25:30.700Z,2.43
2024-04-19T12:27:58.064Z,4.87
2024-04-19T12:30:25.155Z,4.57
2024-04-19T12:32:54.825Z,2.30
2024-04-19T12:35:21.904Z,0.93
2024-04-19T12:37:48.760Z,1.20
2024-04-19T12:40:17.152Z,1.67
2024-04-19T12:42:44.367Z,3.47
2024-04-19T12:45:11.506Z,0.70
2024-04-19T12:47:38.470Z,0.97
2024-04-19T12:50:08.365Z,0.63
2024-04-19T12:52:40.221Z,0.73
2024-04-19T12:55:08.694Z,1.10
2024-04-19T12:57:35.900Z,0.93
2024-04-19T13:00:02.921Z,1.40
2024-04-19T13:02:30.321Z,1.40
2024-04-19T13:04:57.418Z,1.23
2024-04-19T13:07:27.045Z,1.27
2024-04-19T13:09:53.957Z,0.90
2024-04-19T13:12:20.960Z,1.70
2024-04-19T13:14:49.965Z,2.10
2024-04-19T13:17:16.938Z,1.97
2024-04-19T13:19:43.839Z,1.40
2024-04-19T13:22:10.758Z,1.67
2024-04-19T13:24:43.457Z,1.07
2024-04-19T13:27:10.609Z,1.27
2024-04-19T13:29:40.336Z,1.70
2024-04-19T13:32:07.990Z,1.37
2024-04-19T13:34:40.367Z,2.10
2024-04-19T13:37:10.722Z,3.33
2024-04-19T13:39:46.229Z,3.23
2024-04-19T13:42:16.384Z,1.43
2024-04-19T13:44:46.719Z,3.60
2024-04-19T13:50:59.055Z,1.63
2024-04-19T13:53:52.444Z,0.90
2024-04-19T13:56:28.408Z,1.10
2024-04-19T13:58:58.217Z,1.37
2024-04-19T14:01:25.546Z,2.00
2024-04-19T14:03:54.563Z,4.70
2024-04-19T14:09:15.701Z,1.10
2024-04-19T14:11:49.296Z,3.00
2024-04-19T14:14:24.390Z,1.67
2024-04-19T14:16:57.470Z,1.10
2024-04-19T14:19:41.341Z,1.10
2024-04-19T14:22:15.438Z,3.60
2024-04-19T14:24:42.518Z,1.57
2024-04-19T14:27:17.475Z,2.60
2024-04-19T14:29:44.596Z,0.90
2024-04-19T14:32:12.193Z,0.90
2024-04-19T14:34:39.232Z,0.90
2024-04-19T14:37:10.744Z,2.50
2024-04-19T14:39:47.255Z,2.97
2024-04-19T14:42:26.388Z,1.23
2024-04-19T14:44:53.466Z,0.90
2024-04-19T14:47:23.027Z,1.47
2024-04-19T14:50:34.383Z,1.90
2024-04-19T14:55:55.459Z,0.90
2024-04-19T14:58:24.941Z,1.90
2024-04-19T15:00:55.236Z,1.63
2024-04-19T15:03:22.332Z,1.43
2024-04-19T15:05:51.299Z,1.60
2024-04-19T15:08:18.256Z,0.90
2024-04-19T15:10:45.157Z,1.60
2024-04-19T15:13:12.032Z,0.50
2024-04-19T15:15:41.601Z,0.80
2024-04-19T15:18:12.161Z,1.60
2024-04-19T15:20:39.136Z,0.90
2024-04-19T15:23:09.066Z,0.40
2024-04-19T15:25:37.653Z,1.50
2024-04-19T15:28:09.584Z,0.67
2024-04-19T15:30:36.579Z,0.40
2024-04-19T15:33:06.369Z,1.27
2024-04-19T15:35:33.338Z,0.97
2024-04-19T15:38:00.812Z,1.07
2024-04-19T15:40:28.039Z,1.53
2024-04-19T15:42:55.219Z,0.70
2024-04-19T15:45:23.356Z,1.20
2024-04-19T15:47:50.657Z,1.10
2024-04-19T15:50:20.096Z,0.53
2024-04-19T15:52:47.006Z,3.00
2024-04-19T15:55:16.240Z,1.40
2024-04-19T15:57:43.739Z,0.70
2024-04-19T16:00:16.310Z,1.30
2024-04-19T16:02:43.739Z,2.73
2024-04-19T16:05:10.742Z,5.40
2024-04-19T16:07:40.192Z,1.60
2024-04-19T16:10:07.622Z,2.20
2024-04-19T16:12:34.614Z,2.23
2024-04-19T16:15:02.101Z,2.47
2024-04-19T16:17:29.365Z,3.00
2024-04-19T16:20:06.328Z,2.40
2024-04-19T16:22:35.562Z,3.03
2024-04-19T16:25:05.878Z,2.60
2024-04-19T16:27:34.076Z,1.40
2024-04-19T16:30:01.406Z,1.80
2024-04-19T16:32:28.395Z,1.60
2024-04-19T16:34:55.493Z,0.80
2024-04-19T16:37:22.577Z,2.27
2024-04-19T16:39:49.563Z,2.60
2024-04-19T16:42:19.201Z,2.17
2024-04-19T16:44:47.520Z,2.17
2024-04-19T16:47:20.555Z,1.17
2024-04-19T16:49:50.693Z,3.63
2024-04-19T16:52:21.057Z,1.30
2024-04-19T16:54:51.010Z,0.50
2024-04-19T16:57:23.163Z,2.00
2024-04-19T16:59:50.100Z,1.40
2024-04-19T17:03:02.054Z,2.30
2024-04-19T17:05:29.129Z,0.50
2024-04-19T17:07:55.998Z,1.27
2024-04-19T17:10:26.147Z,1.90
2024-04-19T17:12:55.790Z,0.90
2024-04-19T17:15:22.762Z,1.57
2024-04-19T17:17:50.347Z,1.80
2024-04-19T17:20:17.549Z,1.40
2024-04-19T17:22:51.063Z,1.40
2024-04-19T17:25:18.231Z,2.40
2024-04-19T17:27:45.246Z,0.90
2024-04-19T17:30:15.102Z,2.10
2024-04-19T17:32:50.478Z,3.10
2024-04-19T17:35:17.494Z,0.60
2024-04-19T17:37:44.399Z,1.43
2024-04-19T17:40:11.688Z,1.43
2024-04-19T17:42:38.735Z,5.70
2024-04-19T17:45:06.024Z,1.23
2024-04-19T17:47:39.509Z,2.93
2024-04-19T17:50:07.170Z,2.53
2024-04-19T17:52:34.254Z,2.40
2024-04-19T17:55:01.465Z,3.30
2024-04-19T17:57:28.531Z,6.00
2024-04-19T17:59:55.721Z,3.70
2024-04-19T18:02:22.995Z,1.57
2024-04-19T18:04:52.572Z,3.40
2024-04-19T18:07:19.687Z,1.57
2024-04-19T18:09:46.711Z,1.70
2024-04-19T18:12:13.663Z,1.40
2024-04-19T18:14:43.431Z,3.03
2024-04-19T18:17:10.250Z,2.47
2024-04-19T18:19:37.248Z,1.47
2024-04-19T18:22:06.934Z,1.07
2024-04-19T18:24:33.894Z,5.80
2024-04-19T18:27:01.006Z,1.80
2024-04-19T18:29:28.013Z,2.83
2024-04-19T18:31:55.126Z,4.33
2024-04-19T18:34:22.258Z,5.67
2024-04-19T18:36:49.406Z,7.47
2024-04-19T18:39:19.214Z,4.60
2024-04-19T18:41:46.142Z,5.43
2024-04-19T18:44:13.010Z,4.07
2024-04-19T18:46:39.930Z,2.17
2024-04-19T18:49:08.045Z,2.43
2024-04-19T18:51:34.938Z,3.20
2024-04-19T18:54:03.929Z,7.63
2024-04-19T18:56:33.406Z,7.03
2024-04-19T18:59:00.334Z,6.60
2024-04-19T19:01:27.437Z,4.50
2024-04-19T19:03:56.489Z,3.73
2024-04-19T19:06:25.738Z,5.27
2024-04-19T19:08:52.822Z,4.57
2024-04-19T19:11:19.740Z,6.83
2024-04-19T19:13:50.128Z,3.30
2024-04-19T19:16:17.183Z,3.70
2024-04-19T19:18:44.298Z,5.73
2024-04-19T19:21:11.419Z,3.53
2024-04-19T19:23:38.330Z,3.30
2024-04-19T19:26:05.714Z,2.33
2024-04-19T19:28:37.588Z,2.40
2024-04-19T19:31:07.287Z,3.03
2024-04-19T19:33:35.162Z,5.73
2024-04-19T19:36:02.218Z,5.70
2024-04-19T19:38:29.403Z,4.87
2024-04-19T19:41:01.547Z,2.10
2024-04-19T19:43:32.972Z,4.63
2024-04-19T19:46:02.597Z,8.40
2024-04-19T19:48:32.365Z,4.97
2024-04-19T19:51:00.260Z,10.13
2024-04-19T19:53:27.264Z,4.40
2024-04-19T19:55:54.154Z,7.00
2024-04-19T19:58:21.003Z,4.43
2024-04-19T20:00:48.911Z,6.13
2024-04-19T20:03:15.847Z,8.60
2024-04-19T20:05:45.351Z,5.77
2024-04-19T20:08:12.511Z,5.67
2024-04-19T20:10:39.849Z,7.23
2024-04-19T20:13:07.051Z,8.47
2024-04-19T20:15:34.023Z,7.13
2024-04-19T20:18:01.333Z,5.17
2024-04-19T20:20:28.408Z,6.97
2024-04-19T20:22:58.032Z,6.50
2024-04-19T20:25:25.100Z,6.50
2024-04-19T20:27:51.993Z,9.03
2024-04-19T20:30:19.271Z,8.57
2024-04-19T20:32:48.409Z,7.40
2024-04-19T20:35:15.361Z,8.93
2024-04-19T20:37:42.196Z,7.53
2024-04-19T20:40:12.154Z,5.67
2024-04-19T20:42:39.056Z,4.93
2024-04-19T20:45:07.515Z,6.03
2024-04-19T20:47:34.377Z,5.57
2024-04-19T20:50:01.347Z,3.03
2024-04-19T20:52:28.430Z,2.53
2024-04-19T20:54:55.403Z,6.50
2024-04-19T20:57:25.129Z,5.70
2024-04-19T20:59:52.314Z,1.97
2024-04-19T21:02:21.763Z,2.27
2024-04-19T21:04:58.021Z,2.47
2024-04-19T21:07:25.116Z,1.63
2024-04-19T21:10:00.440Z,2.90
2024-04-19T21:12:30.500Z,1.70
2024-04-19T21:14:57.757Z,2.40
2024-04-19T21:17:24.799Z,7.90
2024-04-19T21:19:52.179Z,2.23
2024-04-19T21:22:19.347Z,5.93
2024-04-19T21:24:46.456Z,1.57
2024-04-19T21:27:13.618Z,2.87
2024-04-19T21:29:43.159Z,1.83
2024-04-19T21:32:10.153Z,2.33
2024-04-19T21:34:37.224Z,1.10
2024-04-19T21:39:55.211Z,4.10
2024-04-19T21:42:23.224Z,0.70
2024-04-19T21:44:53.373Z,1.43
2024-04-19T21:47:20.412Z,0.77
2024-04-19T21:49:48.487Z,2.30
2024-04-19T21:52:15.326Z,1.83
2024-04-19T21:54:42.508Z,1.77
2024-04-19T21:57:09.455Z,1.00
2024-04-19T21:59:36.371Z,1.13
2024-04-19T22:02:09.218Z,1.17
2024-04-19T22:04:36.336Z,1.07
2024-04-19T22:07:03.304Z,3.23
2024-04-19T22:09:30.318Z,5.30
2024-04-19T22:11:57.224Z,2.00
2024-04-19T22:14:24.062Z,2.63
2024-04-19T22:16:51.013Z,1.03
2024-04-19T22:19:20.541Z,1.50
2024-04-19T22:21:48.302Z,2.90
2024-04-19T22:24:15.284Z,1.17
2024-04-19T22:26:47.517Z,1.10
2024-04-19T22:29:15.513Z,1.33
2024-04-19T22:31:42.432Z,1.37
2024-04-19T22:34:09.497Z,1.40
2024-04-19T22:36:39.218Z,1.60
2024-04-19T22:39:06.326Z,1.97
2024-04-19T22:41:33.397Z,2.40
2024-04-19T22:44:03.116Z,1.80
2024-04-19T22:46:30.183Z,2.10
2024-04-19T22:48:56.996Z,3.13
2024-04-19T22:51:23.844Z,2.47
2024-04-19T22:53:53.542Z,2.00
2024-04-19T22:56:22.332Z,2.10
2024-04-19T22:58:49.384Z,2.60
2024-04-19T23:01:16.287Z,6.93
2024-04-19T23:03:43.397Z,1.77
2024-04-19T23:06:10.872Z,2.23
2024-04-19T23:08:37.942Z,2.40
2024-04-19T23:11:07.538Z,1.90
2024-04-19T23:13:34.492Z,3.07
2024-04-19T23:16:01.733Z,1.87
2024-04-19T23:18:29.188Z,1.50
2024-04-19T23:20:56.874Z,2.03
2024-04-19T23:23:23.776Z,2.37
2024-04-19T23:25:59.535Z,2.90
2024-04-19T23:28:29.383Z,2.30
2024-04-19T23:30:56.345Z,1.57
2024-04-19T23:33:23.822Z,1.27
2024-04-19T23:35:51.901Z,1.00
2024-04-19T23:38:18.799Z,4.00
2024-04-19T23:40:45.616Z,2.30
2024-04-19T23:43:12.571Z,0.60
2024-04-19T23:45:42.144Z,1.10
2024-04-19T23:48:09.207Z,1.27
2024-04-19T23:50:36.531Z,0.60
2024-04-19T23:53:04.346Z,0.50
2024-04-19T23:55:31.844Z,0.60
2024-04-19T23:57:59.469Z,0.80
